AirNav   ATP
 
 325 users online  

WV20 Wetzel County Hospital Heliport
New Martinsville, West Virginia, USA

GOING TO NEW MARTINSVILLE?


FAA INFORMATION EFFECTIVE 24 MAY 2018

Location

FAA Identifier: WV20
Lat/Long: 39-40-52.2800N / 080-50-55.3100W
39-40.871333N / 080-50.921833W
39.6811889 / -80.8486972
(estimated)
Elevation: 689 ft. / 210 m (estimated)
Variation: 07W (1990)
From city: 3 miles N of NEW MARTINSVILLE, WV
Time zone: UTC -4 (UTC -5 during Standard Time)
Zip code: 26624

Heliport Operations

Heliport use: Private use, MEDICAL USE ONLY.
Activation date: 03/1992
Control tower: no
ARTCC: CLEVELAND CENTER
FSS: ELKINS FLIGHT SERVICE STATION [703-724-4288]
Attendance: CONTINUOUS
Wind indicator: lighted
Segmented circle: no
Lights: FOR PERIMETER LGTS CALL 304-455-8100.
Beacon: white-green-yellow (heliport)
FOR ROTG BCN CALL 304-455-8100.

Heliport Communications

WX AWOS-3 at MPG (13 nm NE): 119.05 (304-845-2959)

Nearby radio navigation aids

VOR radial/distance  VOR name  Freq  Var
AIRr191/20.2BELLAIRE VOR/DME117.1007W
JPUr062/28.3PARKERSBURG VOR/DME108.6003W
HLGr207/37.0WHEELING VOR/DME112.2007W
CKBr318/37.2CLARKSBURG VOR/DME112.6004W

 
NDB name  Hdg/Dist  Freq  Var  ID
CADIZ174/34.223907WCFX -.-. ..-. -..-

Heliport Services

Runway Information

Helipad H1

Dimensions: 20 x 20 ft. / 6 x 6 m
Surface: concrete
Runway edge lights: PERIMETER LGTS.
Latitude: 39-40.871333N
Longitude: 080-50.921833W
Elevation: 689.0 ft.
Traffic pattern: leftleft

Heliport Ownership and Management from official FAA records

Ownership: Publicly-owned
Owner: WETZEL COUNTY HOSPITAL ASSOCIATION
3 EAST BENJAMIN DRIVE
NEW MARTINSVILLE, WV 26155
Phone 304-455-8000
Manager: TOM LANGSDORF
3 EAST BENJAMIN DRIVE
NEW MARTINSVILLE, WV 26155
Phone 304-455-8000
MICHAEL CONNERS 304-551-4083

Heliport Operational Statistics

Aircraft based on the field: 1
Helicopters: 1
    

Additional Remarks

HELIPAD OPERATOR AIR EVAC LIFETEAM (BASE78)
A52-H1 BLDG 175 FT WEST OF PAD; 20 FT PLINES 300 FT WEST OF PAD; 10 TREES 300 FT WEST OF PAD.

Instrument Procedures

There are no published instrument procedures at WV20.

Some nearby airports with instrument procedures:

KMPG - Marshall County Airport (13 nm NE)
4G5 - Monroe County Airport (13 nm NW)
2P7 - Alderman Airport (23 nm N)
6G5 - Barnesville-Bradfield Airport (25 nm NW)
KHLG - Wheeling Ohio County Airport (31 nm N)
 
Loc | Ops | Rwys | IFR | FBO | Links
Com | Nav | Svcs | Stats | Notes

AirNav Hotels Sweepstakes
 
Area around WV20 (Wetzel County Hospital Heliport)
 
Road maps at: MapQuest Bing Google
 
Aerial photo
No photo
 
Sectional chart

 
Airport distance calculator
Flying to Wetzel County Hospital Heliport? Find the distance to fly.

From to WV20

Sunrise and sunset
Times for 21-Jun-2018
 Local
(UTC-4)
 Zulu
(UTC)
Morning civil twilight05:2409:24
Sunrise05:5709:57
Sunset20:5400:54
Evening civil twilight21:2601:26

Current date and time
Zulu (UTC)  21-Jun-2018 08:21:41
Local (UTC-4)  21-Jun-2018 04:21:41
 
METAR
KHLG 
31nm N 
210753Z AUTO 34008KT 4SM BR BKN004 OVC008 19/18 A2983 RMK AO2 CIG 003V007 SLP094 T01940183
KPKB 
33nm SW 
210753Z AUTO 00000KT 5SM BR OVC004 21/19 A2985 RMK AO2 SLP100 T02060194
KCKB 
37nm SE 
210753Z 00000KT 9SM OVC006 22/20 A2983 RMK AO2 CIG 004V011 SLP085 T02170200
KAFJ 
37nm NE 
210756Z AUTO 35005KT 7SM OVC006 19/19 A2984 RMK AO2 RAB33E51 SLP097 P0000 T01940189
KCDI 
38nm NW 
210755Z AUTO 00000KT 7SM OVC007 20/19 A2983 RMK AO2 T01960186
KMGW 
43nm E 
210553Z AUTO 20005KT 10SM OVC009 21/20 A2984 RMK AO2 CIG 005V012 SLP093 60004 T02060200 10222 20206 58008
KW22 
49nm SE 
210755Z AUTO 26006KT 10SM BKN004 OVC008 21/21 A2985 RMK AO2
TAF
KHLG 
31nm N 
210520Z 2106/2206 VRB04KT 2SM BR OVC002 FM211300 VRB04KT 5SM BR BKN015 FM211500 04005KT P6SM BKN025 FM211700 07005KT P6SM BKN035 FM220500 09005KT 6SM -SHRA OVC045
KPKB 
33nm SW 
210527Z 2106/2206 00000KT 5SM BR SCT003 SCT050 FM210630 00000KT 2SM BR SCT004 FM210730 00000KT 1 1/2SM BR OVC003 FM211400 00000KT P6SM OVC008 FM211600 00000KT P6SM BKN018 FM211800 00000KT P6SM SHRA VCTS OVC035CB TEMPO 2120/2122 2SM TSRA OVC015CB FM212200 18003KT P6SM SHRA VCTS OVC035CB FM220100 11004KT P6SM OVC035
KCKB 
37nm SE 
210547Z 2106/2206 26003KT 6SM BR VCSH OVC020 FM210700 22004KT 5SM BR OVC007 FM211000 23003KT 1 1/2SM BR OVC004 FM211300 26003KT 5SM BR OVC004 FM211500 27003KT P6SM OVC015 FM211800 23003KT P6SM BKN030 FM212100 21004KT P6SM SHRA VCTS OVC030CB TEMPO 2122/2201 2SM TSRA OVC015CB FM220100 14003KT 5SM SHRA VCTS OVC030CB FM220300 09003KT P6SM SHRA OVC035
NOTAMs
Click for the latest NOTAMs
NOTAMs are issued by the DoD/FAA and will open in a separate window not controlled by AirNav.

 

 
 

Would you like to see your business listed on this page?

 If your business provides an interesting product or service to pilots, flight crews, aircraft, or users of the Wetzel County Hospital Heliport, you should consider listing it here.  To start the listing process, click on the button below
 
Add a business
 

Other Pages about Wetzel County Hospital Heliport

Update a link
 
Copyright © AirNav, LLC. All rights reserved. Privacy Policy  Contact